Hauptseite
METAR-TAF:

METAR-TAF

Flughäfen :

Troyes, Frankreich

Breite: 48-20N, Länge: 004-01E, Höhe: 118 m

Beobachtung

Neuester Wetterbericht von vor 38 Minuten, um 01:00 UTC
Wind 4 kt aus West, variierte zwischen West/Südwest und Nord/Nordwest
Temperatur 8°C
Luftfeuchtigkeit 81%
Luftdruck 1007 hPa
Sichtweite 10 km oder mehr
keine Wolken unter 1500 m und keine Kumulonimbus oder Gewitterwolken

METAR: LFQB 070100Z AUTO 28004KT 250V340 CAVOK 08/05 Q1007

Zeit: 03:38 (01:38 UTC)


TAF: fehlend

Wetterbeobachtungen und Prognosen von mehr als 4000 Flughäfen (METAR und TAF Bericht).

Die verfügbaren Stationen werden durch gelbe und rote Markierungen auf der Karte dargestellt.

Führen Sie die Maus auf sie, um den Namen der Station zu sehen.

Darauf klicken, um die Beobachtung von Wetterbeobachtungen und Prognosen zu sehen.

Um die Karte zu ändern : klicken Sie auf den grünen Tasten mit einem schwarzen Kreuz Zum Vergrößern, auf den grünen Button mit einem Gedankenstrich zu verkleinern, oder auf die grünen Pfeile für benachbarte Karten.


METAR-TAF: